Decoded Metar for KMYR (MYRTLE BEACH in SC, USA) (IATA:MYR) | Meteo·Mobile Aviation Weather
aviador You're here:

KMYR Decoded Metar

MYRTLE BEACH in SC, USA
Report Time2019-01-19 04:56:00
UTC Time2019-01-19 05:55:53
Flight Rules vfr VFR
Wind010° at 05 kt
W.Decomp.*RWY 36: 4.8 kt HW 1.4 kt RCW
W.Rank010° ranks 6
Current wind is below 010° avg. (8.5)
Visibility9656 m
Phenomena:N/A
Clouds:N/A
CeilingNone
Temp08°C (ISA -7)
Dew Point08°C (100% RH)
AAT5.7°C
QNH1021 hPa
Density Alt-935 ft
Elevation26 ft
Report Wrong Elevation
Raw Report
KMYR 190456Z AUTO 01005KT 6SM CLR 08/08 A3016 RMK AO2 SLP214
T00830078 401610056=

Extra information for KMYR:More info

Metar Taf Metar & Taf Last 4 Metars F.Rules Stats Wind Profile Meteogram Temp Stats Airport Information Weather charts Add Link Nearby VenuesMetar ALERT Operation Metar Decoded Social comments

AIRNAV info for KMYR